createdAt,value
2022-10-01T00:01:15.841Z,83.25
2022-10-01T00:03:43.394Z,82.75
2022-10-01T00:06:17.739Z,82.23
2022-10-01T00:08:48.850Z,83.00
2022-10-01T00:11:19.481Z,83.19
2022-10-01T00:13:46.342Z,82.81
2022-10-01T00:16:16.412Z,83.00
2022-10-01T00:18:45.870Z,83.97
2022-10-01T00:21:16.255Z,86.13
2022-10-01T00:23:42.792Z,85.99
2022-10-01T00:26:13.746Z,84.07
2022-10-01T00:28:41.325Z,83.59
2022-10-01T00:31:09.212Z,85.12
2022-10-01T00:33:36.720Z,83.61
2022-10-01T00:36:06.180Z,85.02
2022-10-01T00:38:33.908Z,84.74
2022-10-01T00:41:01.047Z,84.78
2022-10-01T00:43:31.716Z,84.45
2022-10-01T00:46:04.174Z,84.65
2022-10-01T00:48:37.673Z,84.62
2022-10-01T00:51:06.551Z,84.52
2022-10-01T00:53:33.374Z,84.92
2022-10-01T00:56:00.170Z,85.53
2022-10-01T00:58:27.102Z,87.03
2022-10-01T01:00:56.076Z,85.43
2022-10-01T01:03:23.247Z,85.53
2022-10-01T01:05:50.328Z,85.83
2022-10-01T01:08:17.934Z,87.16
2022-10-01T01:11:24.417Z,86.22
2022-10-01T01:14:08.337Z,86.17
2022-10-01T01:16:49.311Z,86.36
2022-10-01T01:19:30.514Z,86.24
2022-10-01T01:22:03.004Z,86.99
2022-10-01T01:24:39.751Z,87.72
2022-10-01T01:27:34.773Z,88.30
2022-10-01T01:30:08.536Z,87.21
2022-10-01T01:32:55.227Z,87.12
2022-10-01T01:35:26.648Z,86.75
2022-10-01T01:37:59.077Z,86.94
2022-10-01T01:40:27.240Z,87.28
2022-10-01T01:42:56.052Z,87.36
2022-10-01T01:45:28.630Z,87.62
2022-10-01T01:47:58.580Z,88.33
2022-10-01T01:50:28.956Z,87.21
2022-10-01T01:52:56.573Z,87.39
2022-10-01T01:55:24.601Z,87.85
2022-10-01T01:57:51.646Z,87.98
2022-10-01T02:00:18.219Z,88.10
2022-10-01T02:02:50.248Z,89.12
2022-10-01T02:05:21.474Z,89.35
2022-10-01T02:08:00.520Z,88.49
2022-10-01T02:10:38.087Z,88.70
2022-10-01T02:13:24.237Z,88.52
2022-10-01T02:16:06.858Z,88.33
2022-10-01T02:18:59.072Z,88.55
2022-10-01T02:21:39.827Z,88.68
2022-10-01T02:24:17.074Z,89.36
2022-10-01T02:26:48.888Z,88.78
2022-10-01T02:29:19.304Z,89.66
2022-10-01T02:31:47.540Z,89.48
2022-10-01T02:34:20.287Z,89.46
2022-10-01T02:36:48.847Z,89.14
2022-10-01T02:39:17.416Z,89.37
2022-10-01T02:41:48.328Z,89.09
2022-10-01T02:44:23.076Z,89.33
2022-10-01T02:47:07.914Z,89.38
2022-10-01T02:49:36.932Z,89.20
2022-10-01T02:52:24.152Z,90.56
2022-10-01T02:55:12.182Z,89.92
2022-10-01T02:57:39.215Z,90.52
2022-10-01T03:00:10.385Z,89.17
2022-10-01T03:02:36.882Z,89.55
2022-10-01T03:05:04.429Z,89.21
2022-10-01T03:07:34.609Z,89.22
2022-10-01T03:10:02.831Z,89.63
2022-10-01T03:12:29.523Z,89.20
2022-10-01T03:14:56.198Z,89.54
2022-10-01T03:17:22.904Z,89.23
2022-10-01T03:19:49.448Z,89.64
2022-10-01T03:22:22.793Z,89.69
2022-10-01T03:24:50.547Z,89.78
2022-10-01T03:27:17.652Z,89.84
2022-10-01T03:29:45.031Z,89.33
2022-10-01T03:32:12.249Z,89.43
2022-10-01T03:34:39.040Z,89.30
2022-10-01T03:37:05.777Z,89.91
2022-10-01T03:39:32.512Z,89.54
2022-10-01T03:41:59.183Z,89.58
2022-10-01T03:44:25.942Z,89.85
2022-10-01T03:46:52.406Z,89.84
2022-10-01T03:49:18.889Z,90.14
2022-10-01T03:51:45.553Z,90.31
2022-10-01T03:54:12.268Z,89.90
2022-10-01T03:56:40.864Z,89.80
2022-10-01T03:59:07.412Z,90.24
2022-10-01T04:01:34.222Z,90.01
2022-10-01T04:04:01.372Z,90.08
2022-10-01T04:06:27.978Z,90.40
2022-10-01T04:08:54.422Z,89.66
2022-10-01T04:11:21.672Z,90.22
2022-10-01T04:13:48.158Z,89.84
2022-10-01T04:16:16.229Z,89.84
2022-10-01T04:18:43.337Z,90.15
2022-10-01T04:21:09.836Z,90.04
2022-10-01T04:23:36.473Z,90.09
2022-10-01T04:26:04.577Z,89.85
2022-10-01T04:28:31.670Z,90.48
2022-10-01T04:31:17.126Z,90.25
2022-10-01T04:33:43.768Z,90.05
2022-10-01T04:36:10.284Z,90.38
2022-10-01T04:38:37.004Z,89.91
2022-10-01T04:41:04.037Z,90.28
2022-10-01T04:43:30.631Z,90.21
2022-10-01T04:45:57.131Z,89.88
2022-10-01T04:48:24.176Z,89.85
2022-10-01T04:50:50.710Z,90.60
2022-10-01T04:53:17.163Z,89.96
2022-10-01T04:55:43.757Z,89.59
2022-10-01T04:58:10.653Z,90.01
2022-10-01T05:00:37.229Z,90.42
2022-10-01T05:03:03.823Z,90.00
2022-10-01T05:05:33.136Z,90.43
2022-10-01T05:07:59.673Z,90.80
2022-10-01T05:10:26.342Z,90.28
2022-10-01T05:12:53.001Z,90.50
2022-10-01T05:15:19.879Z,90.31
2022-10-01T05:17:47.079Z,90.10
2022-10-01T05:20:19.335Z,90.41
2022-10-01T05:22:47.312Z,90.39
2022-10-01T05:25:14.011Z,90.54
2022-10-01T05:27:41.212Z,90.40
2022-10-01T05:30:10.541Z,90.29
2022-10-01T05:32:37.236Z,90.73
2022-10-01T05:35:05.459Z,90.23
2022-10-01T05:37:33.452Z,89.95
2022-10-01T05:40:00.105Z,90.63
2022-10-01T05:42:26.679Z,89.97
2022-10-01T05:44:53.192Z,90.16
2022-10-01T05:47:20.791Z,90.72
2022-10-01T05:49:47.270Z,90.29
2022-10-01T05:52:15.693Z,90.51
2022-10-01T05:54:42.162Z,89.72
2022-10-01T05:57:09.420Z,90.20
2022-10-01T05:59:36.404Z,90.13
2022-10-01T06:02:04.456Z,89.80
2022-10-01T06:04:31.383Z,90.00
2022-10-01T06:06:58.086Z,89.80
2022-10-01T06:09:24.732Z,89.86
2022-10-01T06:11:51.345Z,90.12
2022-10-01T06:14:18.120Z,89.85
2022-10-01T06:16:44.754Z,90.11
2022-10-01T06:19:11.273Z,89.69
2022-10-01T06:21:38.045Z,90.24
2022-10-01T06:24:06.953Z,90.47
2022-10-01T06:26:33.392Z,89.83
2022-10-01T06:28:59.895Z,90.33
2022-10-01T06:31:26.397Z,90.17
2022-10-01T06:33:53.133Z,90.36
2022-10-01T06:36:19.698Z,89.99
2022-10-01T06:38:49.478Z,90.72
2022-10-01T06:41:16.352Z,90.05
2022-10-01T06:43:42.935Z,90.26
2022-10-01T06:46:09.680Z,90.63
2022-10-01T06:48:36.781Z,90.82
2022-10-01T06:51:04.166Z,90.54
2022-10-01T06:53:30.889Z,90.98
2022-10-01T06:56:03.192Z,90.64
2022-10-01T06:58:30.135Z,90.49
2022-10-01T07:01:01.444Z,91.39
2022-10-01T07:03:28.472Z,90.87
2022-10-01T07:06:01.576Z,91.40
2022-10-01T07:08:28.288Z,91.10
2022-10-01T07:10:59.773Z,90.93
2022-10-01T07:13:26.306Z,90.79
2022-10-01T07:15:52.839Z,90.64
2022-10-01T07:18:19.408Z,91.46
2022-10-01T07:20:46.243Z,91.94
2022-10-01T07:23:14.364Z,91.86
2022-10-01T07:25:42.151Z,91.92
2022-10-01T07:28:16.690Z,91.83
2022-10-01T07:30:56.448Z,91.64
2022-10-01T07:33:23.143Z,92.09
2022-10-01T07:35:50.196Z,91.61
2022-10-01T07:38:17.979Z,92.08
2022-10-01T07:40:44.856Z,91.56
2022-10-01T07:43:11.397Z,91.98
2022-10-01T07:45:38.087Z,91.80
2022-10-01T07:48:05.418Z,91.90
2022-10-01T07:50:31.995Z,92.24
2022-10-01T07:52:59.744Z,92.48
2022-10-01T07:55:28.897Z,92.03
2022-10-01T07:58:01.525Z,92.01
2022-10-01T08:00:31.283Z,92.20
2022-10-01T08:02:58.196Z,92.37
2022-10-01T08:05:29.200Z,92.65
2022-10-01T08:08:03.565Z,92.83
2022-10-01T08:10:31.429Z,92.55
2022-10-01T08:13:14.820Z,92.81
2022-10-01T08:15:43.052Z,92.35
2022-10-01T08:18:11.485Z,92.13
2022-10-01T08:20:41.579Z,92.17
2022-10-01T08:23:12.095Z,92.91
2022-10-01T08:25:39.771Z,92.41
2022-10-01T08:28:07.357Z,92.70
2022-10-01T08:30:34.146Z,93.06
2022-10-01T08:33:04.872Z,92.61
2022-10-01T08:35:31.557Z,92.90
2022-10-01T08:38:05.913Z,92.28
2022-10-01T08:40:41.358Z,92.52
2022-10-01T08:43:28.200Z,92.90
2022-10-01T08:46:00.185Z,92.89
2022-10-01T08:48:40.744Z,92.78
2022-10-01T08:51:27.736Z,93.18
2022-10-01T08:54:32.555Z,92.53
2022-10-01T08:57:02.473Z,93.14
2022-10-01T08:59:44.249Z,92.55
2022-10-01T09:02:25.075Z,92.94
2022-10-01T09:05:01.306Z,92.87
2022-10-01T09:07:42.041Z,92.94
2022-10-01T09:10:35.927Z,92.69
2022-10-01T09:13:32.528Z,93.04
2022-10-01T09:16:24.091Z,92.74
2022-10-01T09:19:10.855Z,93.02
2022-10-01T09:21:54.368Z,92.19
2022-10-01T09:24:44.943Z,92.75
2022-10-01T09:27:16.563Z,92.95
2022-10-01T09:29:51.432Z,93.09
2022-10-01T09:32:26.149Z,93.11
2022-10-01T09:34:54.387Z,93.27
2022-10-01T09:37:40.732Z,93.09
2022-10-01T09:40:38.553Z,93.02
2022-10-01T09:43:08.746Z,92.55
2022-10-01T09:45:37.711Z,92.84
2022-10-01T09:48:21.576Z,91.38
2022-10-01T09:50:58.407Z,91.85
2022-10-01T09:53:48.044Z,88.83
2022-10-01T09:56:24.602Z,90.35
2022-10-01T09:58:56.868Z,87.98
2022-10-01T10:01:37.271Z,88.26
2022-10-01T10:04:04.468Z,89.55
2022-10-01T10:06:32.295Z,89.30
2022-10-01T10:09:01.167Z,89.30
2022-10-01T10:11:31.043Z,89.87
2022-10-01T10:14:00.787Z,90.27
2022-10-01T10:16:38.356Z,90.57
2022-10-01T10:19:11.748Z,90.65
2022-10-01T10:21:38.263Z,90.80
2022-10-01T10:24:19.454Z,90.42
2022-10-01T10:26:55.364Z,90.45
2022-10-01T10:29:33.648Z,90.51
2022-10-01T10:32:06.896Z,89.80
2022-10-01T10:34:40.928Z,89.60
2022-10-01T10:37:15.016Z,89.55
2022-10-01T10:39:46.861Z,89.16
2022-10-01T10:42:18.811Z,87.27
2022-10-01T10:44:49.632Z,88.34
2022-10-01T10:47:19.010Z,87.80
2022-10-01T10:49:56.581Z,87.54
2022-10-01T10:52:36.338Z,86.77
2022-10-01T10:55:40.798Z,86.00
2022-10-01T10:58:12.104Z,85.66
2022-10-01T11:00:52.779Z,85.07
2022-10-01T11:03:29.640Z,84.80
2022-10-01T11:06:08.770Z,82.40
2022-10-01T11:08:35.912Z,83.07
2022-10-01T11:11:31.771Z,81.46
2022-10-01T11:14:04.289Z,83.03
2022-10-01T11:17:20.817Z,81.77
2022-10-01T11:20:01.216Z,78.87
2022-10-01T11:23:17.065Z,79.77
2022-10-01T11:26:11.731Z,77.66
2022-10-01T11:28:48.593Z,75.85
2022-10-01T11:31:38.293Z,75.88
2022-10-01T11:34:37.445Z,75.97
2022-10-01T11:37:37.435Z,77.28
2022-10-01T11:40:15.953Z,76.50
2022-10-01T11:42:46.687Z,77.22
2022-10-01T11:45:23.281Z,77.02
2022-10-01T11:48:04.527Z,76.17
2022-10-01T11:50:51.982Z,75.32
2022-10-01T11:53:33.373Z,75.33
2022-10-01T11:56:22.647Z,74.81
2022-10-01T11:59:01.277Z,73.59
2022-10-01T12:01:34.943Z,73.40
2022-10-01T12:04:20.250Z,72.96
2022-10-01T12:07:03.976Z,70.30
2022-10-01T12:09:53.990Z,69.26
2022-10-01T12:12:50.831Z,69.67
2022-10-01T12:15:28.824Z,69.99
2022-10-01T12:18:29.472Z,70.54
2022-10-01T12:21:14.272Z,70.58
2022-10-01T12:23:53.400Z,70.02
2022-10-01T12:26:51.335Z,71.62
2022-10-01T12:29:31.385Z,71.46
2022-10-01T12:32:15.837Z,72.16
2022-10-01T12:35:32.066Z,72.66
2022-10-01T12:38:27.930Z,70.21
2022-10-01T12:41:07.020Z,70.90
2022-10-01T12:44:14.548Z,68.95
2022-10-01T12:47:00.050Z,68.13
2022-10-01T12:49:48.298Z,66.91
2022-10-01T12:52:42.512Z,66.86
2022-10-01T12:55:34.480Z,65.19
2022-10-01T12:58:17.329Z,65.77
2022-10-01T13:00:58.062Z,65.91
2022-10-01T13:03:50.148Z,66.51
2022-10-01T13:06:34.697Z,66.01
2022-10-01T13:09:32.910Z,65.72
2022-10-01T13:12:26.458Z,63.19
2022-10-01T13:14:54.163Z,62.53
2022-10-01T13:17:34.781Z,63.49
2022-10-01T13:20:13.781Z,63.29
2022-10-01T13:22:51.556Z,63.55
2022-10-01T13:25:57.743Z,64.02
2022-10-01T13:28:33.272Z,64.31
2022-10-01T13:31:10.155Z,64.75
2022-10-01T13:33:37.354Z,64.87
2022-10-01T13:36:10.905Z,64.85
2022-10-01T13:38:46.167Z,64.10
2022-10-01T13:41:27.655Z,63.71
2022-10-01T13:44:22.984Z,64.03
2022-10-01T13:46:53.362Z,63.30
2022-10-01T13:49:30.115Z,63.56
2022-10-01T13:51:57.899Z,64.09
2022-10-01T13:54:47.507Z,65.29
2022-10-01T13:57:29.766Z,65.71
2022-10-01T14:00:01.442Z,65.17
2022-10-01T14:02:32.236Z,64.89
2022-10-01T14:05:19.870Z,62.88
2022-10-01T14:07:50.317Z,63.50
2022-10-01T14:10:18.070Z,63.53
2022-10-01T14:13:05.236Z,63.37
2022-10-01T14:16:03.450Z,63.32
2022-10-01T14:18:36.367Z,63.70
2022-10-01T14:21:47.194Z,63.22
2022-10-01T14:24:57.788Z,63.71
2022-10-01T14:27:41.733Z,63.38
2022-10-01T14:30:21.116Z,62.08
2022-10-01T14:33:06.270Z,61.94
2022-10-01T14:35:38.532Z,62.30
2022-10-01T14:38:13.216Z,62.13
2022-10-01T14:40:42.084Z,63.33
2022-10-01T14:43:20.646Z,64.05
2022-10-01T14:45:52.505Z,65.09
2022-10-01T14:48:19.190Z,65.45
2022-10-01T14:50:52.594Z,67.06
2022-10-01T14:53:22.419Z,66.98
2022-10-01T14:55:50.957Z,66.97
2022-10-01T14:58:27.392Z,67.29
2022-10-01T15:00:56.459Z,67.28
2022-10-01T15:03:23.402Z,67.37
2022-10-01T15:05:50.787Z,67.20
2022-10-01T15:08:38.081Z,67.76
2022-10-01T15:11:11.047Z,69.93
2022-10-01T15:13:40.961Z,72.48
2022-10-01T15:16:21.412Z,74.59
2022-10-01T15:18:56.836Z,74.69
2022-10-01T15:21:30.893Z,74.55
2022-10-01T15:24:02.982Z,74.55
2022-10-01T15:26:31.492Z,74.39
2022-10-01T15:29:12.182Z,74.14
2022-10-01T15:31:39.398Z,75.00
2022-10-01T15:34:11.067Z,74.03
2022-10-01T15:36:39.309Z,73.90
2022-10-01T15:39:27.505Z,73.79
2022-10-01T15:41:55.511Z,73.48
2022-10-01T15:44:38.644Z,73.43
2022-10-01T15:47:35.568Z,73.32
2022-10-01T15:50:03.604Z,73.27
2022-10-01T15:52:54.224Z,73.05
2022-10-01T15:55:26.636Z,72.80
2022-10-01T15:58:07.546Z,72.46
2022-10-01T16:00:47.566Z,72.32
2022-10-01T16:03:23.261Z,72.43
2022-10-01T16:05:51.411Z,72.60
2022-10-01T16:08:21.883Z,72.74
2022-10-01T16:11:09.400Z,72.55
2022-10-01T16:13:39.265Z,72.76
2022-10-01T16:16:24.736Z,72.58
2022-10-01T16:19:00.133Z,72.29
2022-10-01T16:21:27.024Z,72.42
2022-10-01T16:23:55.918Z,72.26
2022-10-01T16:26:32.542Z,72.70
2022-10-01T16:29:22.590Z,72.39
2022-10-01T16:31:50.411Z,72.53
2022-10-01T16:34:19.557Z,72.68
2022-10-01T16:36:46.731Z,72.64
2022-10-01T16:39:15.076Z,72.44
2022-10-01T16:41:44.075Z,72.29
2022-10-01T16:44:13.647Z,72.23
2022-10-01T16:46:41.227Z,72.18
2022-10-01T16:49:15.633Z,72.48
2022-10-01T16:51:42.718Z,72.58
2022-10-01T16:54:21.536Z,71.79
2022-10-01T16:56:50.545Z,72.19
2022-10-01T16:59:17.117Z,72.49
2022-10-01T17:01:44.573Z,72.76
2022-10-01T17:04:13.507Z,72.49
2022-10-01T17:06:41.176Z,72.82
2022-10-01T17:09:07.739Z,73.09
2022-10-01T17:11:34.930Z,72.88
2022-10-01T17:14:03.014Z,72.82
2022-10-01T17:16:29.683Z,72.78
2022-10-01T17:18:56.802Z,72.54
2022-10-01T17:21:23.583Z,72.13
2022-10-01T17:23:53.520Z,72.05
2022-10-01T17:26:20.376Z,72.25
2022-10-01T17:28:47.050Z,72.32
2022-10-01T17:31:18.099Z,72.08
2022-10-01T17:33:45.233Z,71.98
2022-10-01T17:36:11.889Z,71.99
2022-10-01T17:38:40.412Z,72.25
2022-10-01T17:41:07.706Z,72.08
2022-10-01T17:43:34.285Z,72.13
2022-10-01T17:46:01.198Z,72.28
2022-10-01T17:48:28.886Z,72.44
2022-10-01T17:51:07.341Z,72.65
2022-10-01T17:53:41.900Z,72.42
2022-10-01T17:56:14.662Z,72.88
2022-10-01T17:58:45.388Z,72.75
2022-10-01T18:01:19.819Z,73.17
2022-10-01T18:03:46.894Z,72.63
2022-10-01T18:06:15.986Z,73.07
2022-10-01T18:08:55.037Z,73.09
2022-10-01T18:11:23.093Z,73.38
2022-10-01T18:13:51.040Z,73.31
2022-10-01T18:16:19.474Z,73.23
2022-10-01T18:21:33.160Z,73.35
2022-10-01T18:24:04.244Z,73.73
2022-10-01T18:26:32.220Z,73.90
2022-10-01T18:28:58.925Z,73.56
2022-10-01T18:31:35.358Z,74.21
2022-10-01T18:34:06.014Z,74.47
2022-10-01T18:36:38.407Z,74.29
2022-10-01T18:39:32.432Z,74.33
2022-10-01T18:41:59.193Z,74.49
2022-10-01T18:44:26.228Z,74.85
2022-10-01T18:47:22.960Z,74.91
2022-10-01T18:50:26.851Z,76.12
2022-10-01T18:53:40.013Z,74.64
2022-10-01T18:56:18.532Z,74.97
2022-10-01T18:59:14.097Z,75.51
2022-10-01T19:01:53.555Z,75.35
2022-10-01T19:05:01.511Z,76.19
2022-10-01T19:07:53.724Z,75.46
2022-10-01T19:10:39.296Z,76.75
2022-10-01T19:13:20.505Z,76.64
2022-10-01T19:16:39.338Z,76.03
2022-10-01T19:20:09.936Z,76.51
2022-10-01T19:23:21.754Z,76.50
2022-10-01T19:26:11.031Z,76.23
2022-10-01T19:29:18.953Z,77.06
2022-10-01T19:32:11.439Z,76.97
2022-10-01T19:34:48.033Z,76.68
2022-10-01T19:37:39.439Z,77.38
2022-10-01T19:40:42.203Z,78.46
2022-10-01T19:43:19.128Z,77.68
2022-10-01T19:45:56.363Z,76.79
2022-10-01T19:48:35.977Z,76.86
2022-10-01T19:51:08.041Z,77.50
2022-10-01T19:53:37.523Z,76.75
2022-10-01T19:56:05.328Z,77.05
2022-10-01T19:58:32.741Z,77.24
2022-10-01T20:01:02.032Z,77.01
2022-10-01T20:03:40.672Z,77.69
2022-10-01T20:06:25.623Z,77.37
2022-10-01T20:08:57.452Z,78.18
2022-10-01T20:11:36.805Z,77.27
2022-10-01T20:15:02.999Z,77.32
2022-10-01T20:17:38.697Z,77.99
2022-10-01T20:20:26.473Z,78.63
2022-10-01T20:23:12.293Z,78.03
2022-10-01T20:25:55.963Z,78.61
2022-10-01T20:28:42.066Z,78.16
2022-10-01T20:31:18.921Z,78.72
2022-10-01T20:34:00.124Z,77.84
2022-10-01T20:36:38.577Z,78.67
2022-10-01T20:39:15.994Z,78.43
2022-10-01T20:41:48.093Z,78.57
2022-10-01T20:44:21.862Z,78.10
2022-10-01T20:46:52.274Z,78.57
2022-10-01T20:49:29.948Z,78.29
2022-10-01T20:52:08.684Z,78.59
2022-10-01T20:54:46.548Z,79.59
2022-10-01T20:57:15.471Z,79.65
2022-10-01T20:59:49.021Z,78.25
2022-10-01T21:02:54.795Z,79.09
2022-10-01T21:05:37.327Z,79.20
2022-10-01T21:08:17.956Z,79.47
2022-10-01T21:10:53.888Z,79.93
2022-10-01T21:13:27.882Z,80.60
2022-10-01T21:16:37.303Z,80.44
2022-10-01T21:19:13.040Z,79.39
2022-10-01T21:21:56.101Z,79.62
2022-10-01T21:24:47.280Z,81.26
2022-10-01T21:27:34.512Z,80.21
2022-10-01T21:30:11.797Z,80.18
2022-10-01T21:33:13.429Z,80.50
2022-10-01T21:36:06.994Z,81.52
2022-10-01T21:38:41.063Z,80.51
2022-10-01T21:41:33.078Z,80.89
2022-10-01T21:44:34.748Z,81.03
2022-10-01T21:47:08.004Z,80.28
2022-10-01T21:50:17.694Z,80.91
2022-10-01T21:53:10.260Z,81.51
2022-10-01T21:56:06.566Z,81.67
2022-10-01T21:59:07.828Z,81.11
2022-10-01T22:01:57.234Z,80.75
2022-10-01T22:04:46.605Z,81.89
2022-10-01T22:07:23.986Z,81.20
2022-10-01T22:10:14.817Z,81.34
2022-10-01T22:12:45.890Z,81.46
2022-10-01T22:15:23.070Z,81.27
2022-10-01T22:17:53.713Z,82.05
2022-10-01T22:20:24.187Z,81.85
2022-10-01T22:22:56.668Z,82.84
2022-10-01T22:25:24.240Z,81.72
2022-10-01T22:27:56.639Z,81.64
2022-10-01T22:30:29.004Z,82.29
2022-10-01T22:33:07.987Z,82.77
2022-10-01T22:35:44.201Z,81.61
2022-10-01T22:38:30.832Z,82.00
2022-10-01T22:41:07.839Z,82.63
2022-10-01T22:43:34.999Z,82.89
2022-10-01T22:46:13.703Z,82.43
2022-10-01T22:49:25.351Z,83.18
2022-10-01T22:52:17.877Z,84.60
2022-10-01T22:55:05.872Z,83.86
2022-10-01T22:57:45.125Z,83.86
2022-10-01T23:00:14.532Z,83.56
2022-10-01T23:03:25.002Z,83.18
2022-10-01T23:06:36.249Z,84.00
2022-10-01T23:09:26.981Z,84.23
2022-10-01T23:12:09.541Z,84.98
2022-10-01T23:14:55.908Z,84.19
2022-10-01T23:17:29.353Z,83.81
2022-10-01T23:20:20.576Z,83.57
2022-10-01T23:23:02.660Z,84.01
2022-10-01T23:25:44.047Z,84.75
2022-10-01T23:28:45.392Z,85.53
2022-10-01T23:31:36.996Z,84.20
2022-10-01T23:34:39.800Z,84.54
2022-10-01T23:37:43.657Z,85.10
2022-10-01T23:40:20.617Z,84.43
2022-10-01T23:43:00.612Z,86.40
2022-10-01T23:45:34.344Z,85.13
2022-10-01T23:48:27.429Z,84.87
2022-10-01T23:51:03.906Z,85.73
2022-10-01T23:54:02.632Z,84.62
2022-10-01T23:56:48.658Z,85.68
2022-10-01T23:59:36.882Z,84.88
